createdAt,value
2022-10-18T00:02:10.066Z,152611.28
2022-10-18T00:04:40.385Z,152599.63
2022-10-18T00:07:10.467Z,152590.59
2022-10-18T00:09:40.649Z,152581.53
2022-10-18T00:12:10.843Z,152578.94
2022-10-18T00:14:41.006Z,152573.75
2022-10-18T00:17:13.853Z,152569.88
2022-10-18T00:19:43.957Z,152566.03
2022-10-18T00:22:14.303Z,152562.16
2022-10-18T00:24:44.583Z,152556.97
2022-10-18T00:27:14.813Z,152549.19
2022-10-18T00:29:44.993Z,152549.19
2022-10-18T00:32:20.631Z,152544.03
2022-10-18T00:34:51.103Z,152533.69
2022-10-18T00:37:21.601Z,152528.50
2022-10-18T00:42:25.668Z,152522.06
2022-10-18T00:45:23.387Z,152509.13
2022-10-18T00:48:05.747Z,152510.41
2022-10-18T00:50:37.394Z,152498.78
2022-10-18T00:53:12.856Z,152482.00
2022-10-18T00:55:43.067Z,152483.28
2022-10-18T00:58:14.872Z,152475.50
2022-10-18T01:00:45.498Z,152472.94
2022-10-18T01:03:18.422Z,152474.22
2022-10-18T01:05:50.790Z,152478.09
2022-10-18T01:08:35.448Z,152482.00
2022-10-18T01:11:18.653Z,152478.09
2022-10-18T01:14:03.775Z,152478.09
2022-10-18T01:16:41.128Z,152487.16
2022-10-18T01:19:33.009Z,152485.84
2022-10-18T01:22:08.632Z,152494.91
2022-10-18T01:25:09.960Z,152492.34
2022-10-18T01:27:51.302Z,152501.38
2022-10-18T01:30:49.300Z,152497.50
2022-10-18T01:33:28.833Z,152498.78
2022-10-18T01:36:06.625Z,152489.72
2022-10-18T01:38:40.491Z,152482.00
2022-10-18T01:41:15.567Z,152479.38
2022-10-18T01:43:48.965Z,152466.38
2022-10-18T01:46:25.613Z,152465.13
2022-10-18T01:48:57.530Z,152456.06
2022-10-18T01:51:29.267Z,152440.56
2022-10-18T01:54:00.251Z,152431.50
2022-10-18T01:56:43.017Z,152422.47
2022-10-18T01:59:25.477Z,152410.81
2022-10-18T02:02:09.779Z,152409.53
2022-10-18T02:04:47.447Z,152403.09
2022-10-18T02:07:26.934Z,152397.94
2022-10-18T02:10:06.389Z,152396.59
2022-10-18T02:12:37.769Z,152394.03
2022-10-18T02:15:12.045Z,152381.09
2022-10-18T02:17:47.623Z,152374.66
2022-10-18T02:20:22.959Z,152366.88
2022-10-18T02:22:55.546Z,152347.50
2022-10-18T02:25:28.413Z,152338.47
2022-10-18T02:27:59.469Z,152363.03
2022-10-18T02:30:37.144Z,152366.88
2022-10-18T02:33:18.164Z,152357.81
2022-10-18T02:35:52.883Z,152386.25
2022-10-18T02:38:25.596Z,152359.16
2022-10-18T02:40:56.021Z,152359.16
2022-10-18T02:43:27.892Z,152347.50
2022-10-18T02:45:58.215Z,152344.94
2022-10-18T02:48:31.206Z,152326.81
2022-10-18T02:51:01.446Z,152315.22
2022-10-18T02:53:31.830Z,152306.16
2022-10-18T02:56:03.387Z,152297.09
2022-10-18T02:58:33.719Z,152276.44
2022-10-18T03:01:04.582Z,152271.28
2022-10-18T03:03:37.279Z,152264.84
2022-10-18T03:06:07.770Z,152262.22
2022-10-18T03:08:39.325Z,152254.50
2022-10-18T03:11:09.888Z,152257.06
2022-10-18T03:13:40.176Z,152250.63
2022-10-18T03:16:10.476Z,152231.22
2022-10-18T03:18:43.686Z,152232.50
2022-10-18T03:21:14.015Z,152231.22
2022-10-18T03:23:45.611Z,152231.22
2022-10-18T03:26:16.174Z,152220.91
2022-10-18T03:28:46.871Z,152224.78
2022-10-18T03:31:17.160Z,152224.78
2022-10-18T03:33:50.765Z,152215.75
2022-10-18T03:36:21.243Z,152192.47
2022-10-18T03:38:51.399Z,152192.47
2022-10-18T03:41:21.434Z,152182.16
2022-10-18T03:43:51.670Z,152170.53
2022-10-18T03:46:21.852Z,152164.03
2022-10-18T03:48:54.748Z,152164.03
2022-10-18T03:51:24.870Z,152174.38
2022-10-18T03:53:55.354Z,152162.75
2022-10-18T03:56:25.642Z,152156.31
2022-10-18T03:58:58.961Z,152138.22
2022-10-18T04:01:29.087Z,152134.34
2022-10-18T04:04:03.055Z,152135.63
2022-10-18T04:06:33.375Z,152131.78
2022-10-18T04:09:06.527Z,152122.72
2022-10-18T04:11:39.700Z,152122.72
2022-10-18T04:14:10.033Z,152114.97
2022-10-18T04:16:40.176Z,152113.69
2022-10-18T04:19:13.933Z,152114.97
2022-10-18T04:21:44.521Z,152104.63
2022-10-18T04:24:14.596Z,152094.31
2022-10-18T04:26:44.909Z,152077.53
2022-10-18T04:29:15.425Z,152072.38
2022-10-18T04:31:45.658Z,152065.91
2022-10-18T04:34:18.318Z,152069.78
2022-10-18T04:36:48.997Z,152060.72
2022-10-18T04:39:20.562Z,152054.28
2022-10-18T04:41:51.160Z,152036.19
2022-10-18T04:44:21.463Z,152038.81
2022-10-18T04:46:52.490Z,152023.31
2022-10-18T04:49:25.350Z,152020.72
2022-10-18T04:51:55.653Z,152019.44
2022-10-18T04:54:27.963Z,152022.00
2022-10-18T04:56:59.056Z,152028.47
2022-10-18T04:59:29.312Z,152025.88
2022-10-18T05:01:59.660Z,152031.03
2022-10-18T05:04:32.492Z,152027.16
2022-10-18T05:07:03.214Z,152031.03
2022-10-18T05:09:33.373Z,152023.31
2022-10-18T05:12:03.656Z,152022.00
2022-10-18T05:14:34.220Z,152023.31
2022-10-18T05:17:04.893Z,152036.19
2022-10-18T05:19:40.667Z,152027.16
2022-10-18T05:22:11.062Z,152034.91
2022-10-18T05:24:41.405Z,152037.53
2022-10-18T05:27:11.845Z,152049.13
2022-10-18T05:29:42.002Z,152076.22
2022-10-18T05:32:12.103Z,152074.94
2022-10-18T05:34:45.710Z,152068.50
2022-10-18T05:37:16.283Z,152056.84
2022-10-18T05:39:46.580Z,152073.66
2022-10-18T05:42:16.915Z,152077.53
2022-10-18T05:44:47.392Z,152093.03
2022-10-18T05:47:17.651Z,152109.81
2022-10-18T05:49:50.867Z,152114.97
2022-10-18T05:52:21.082Z,152113.69
2022-10-18T05:54:51.418Z,152125.28
2022-10-18T05:57:21.650Z,152129.19
2022-10-18T05:59:52.295Z,152133.06
2022-10-18T06:02:22.530Z,152130.47
2022-10-18T06:04:55.407Z,152165.31
2022-10-18T06:07:25.469Z,152169.22
2022-10-18T06:09:55.844Z,152174.38
2022-10-18T06:12:26.004Z,152186.03
2022-10-18T06:14:56.250Z,152214.41
2022-10-18T06:17:27.797Z,152219.56
2022-10-18T06:20:03.258Z,152224.78
2022-10-18T06:22:33.397Z,152233.78
2022-10-18T06:25:03.657Z,152257.06
2022-10-18T06:27:35.025Z,152277.72
2022-10-18T06:30:05.430Z,152297.09
2022-10-18T06:32:35.760Z,152322.94
2022-10-18T06:35:10.163Z,152348.81
2022-10-18T06:37:40.624Z,152369.47
2022-10-18T06:40:12.361Z,152387.53
2022-10-18T06:42:45.328Z,152414.72
2022-10-18T06:45:21.977Z,152435.38
2022-10-18T06:47:52.452Z,152452.22
2022-10-18T06:50:25.610Z,152487.16
2022-10-18T06:52:56.027Z,152513.00
2022-10-18T06:55:26.303Z,152527.25
2022-10-18T06:57:56.576Z,152580.22
2022-10-18T07:00:26.770Z,152591.88
2022-10-18T07:02:56.971Z,152599.63
2022-10-18T07:05:29.908Z,152612.56
2022-10-18T07:08:00.116Z,152653.94
2022-10-18T07:10:31.038Z,152679.84
2022-10-18T07:13:20.089Z,152701.81
2022-10-18T07:15:51.996Z,152756.16
2022-10-18T07:18:23.006Z,152789.78
2022-10-18T07:20:56.105Z,152844.13
2022-10-18T07:23:26.670Z,152892.03
2022-10-18T07:25:56.811Z,152954.19
2022-10-18T07:28:26.881Z,152972.34
2022-10-18T07:31:00.285Z,153006.00
2022-10-18T07:33:32.609Z,153043.53
2022-10-18T07:36:09.112Z,153082.38
2022-10-18T07:38:39.629Z,153094.00
2022-10-18T07:41:11.139Z,153112.16
2022-10-18T07:43:45.890Z,153112.16
2022-10-18T07:46:18.270Z,153134.22
2022-10-18T07:48:48.374Z,153135.50
2022-10-18T07:51:22.667Z,153132.88
2022-10-18T07:53:53.168Z,153171.75
2022-10-18T07:56:24.710Z,153183.38
2022-10-18T07:58:56.489Z,153218.41
2022-10-18T08:01:28.151Z,153248.19
2022-10-18T08:04:03.238Z,153341.44
2022-10-18T08:06:39.449Z,153383.00
2022-10-18T08:09:10.128Z,153437.44
2022-10-18T08:11:40.180Z,153503.53
2022-10-18T08:14:10.329Z,153538.53
2022-10-18T08:16:41.600Z,153558.00
2022-10-18T08:19:12.295Z,153598.19
2022-10-18T08:21:45.273Z,153639.72
2022-10-18T08:24:15.299Z,153676.03
2022-10-18T08:26:45.291Z,153712.38
2022-10-18T08:29:23.862Z,153752.59
2022-10-18T08:31:56.003Z,153783.75
2022-10-18T08:34:27.891Z,153818.78
2022-10-18T08:37:02.343Z,153874.56
2022-10-18T08:39:32.640Z,153918.72
2022-10-18T08:42:19.210Z,153969.31
2022-10-18T08:44:53.698Z,153996.59
2022-10-18T08:47:27.915Z,154077.13
2022-10-18T08:50:02.634Z,154075.84
2022-10-18T08:52:47.095Z,154131.69
2022-10-18T08:55:25.316Z,154140.78
2022-10-18T08:57:57.874Z,154165.44
2022-10-18T09:00:32.679Z,154195.31
2022-10-18T09:03:20.429Z,154186.22
2022-10-18T09:05:54.776Z,154238.16
2022-10-18T09:09:00.370Z,154290.16
2022-10-18T09:11:44.580Z,154313.50
2022-10-18T09:14:32.876Z,154335.66
2022-10-18T09:17:16.462Z,154390.25
2022-10-18T09:20:14.355Z,154379.84
2022-10-18T09:22:56.663Z,154398.00
2022-10-18T09:25:39.082Z,154400.63
2022-10-18T09:28:26.634Z,154452.59
2022-10-18T09:31:04.334Z,154470.81
2022-10-18T09:33:45.082Z,154468.25
2022-10-18T09:36:21.565Z,154490.31
2022-10-18T09:38:57.220Z,154513.72
2022-10-18T09:41:41.179Z,154551.41
2022-10-18T09:44:19.546Z,154524.13
2022-10-18T09:46:54.578Z,154552.72
2022-10-18T09:49:28.909Z,154581.31
2022-10-18T09:52:02.929Z,154599.56
2022-10-18T09:54:38.143Z,154603.47
2022-10-18T09:57:16.258Z,154609.97
2022-10-18T09:59:49.478Z,154613.88
2022-10-18T10:02:22.403Z,154658.09
2022-10-18T10:04:59.069Z,154694.50
2022-10-18T10:07:38.258Z,154678.88
2022-10-18T10:10:16.434Z,154727.03
2022-10-18T10:12:52.120Z,154759.53
2022-10-18T10:15:28.285Z,154747.81
2022-10-18T10:18:05.217Z,154758.22
2022-10-18T10:20:39.702Z,154790.72
2022-10-18T10:23:20.040Z,154798.53
2022-10-18T10:25:55.666Z,154814.16
2022-10-18T10:28:33.182Z,154855.88
2022-10-18T10:31:22.419Z,154893.56
2022-10-18T10:34:02.420Z,154893.56
2022-10-18T10:36:36.394Z,154876.69
2022-10-18T10:39:09.695Z,154893.56
2022-10-18T10:41:43.311Z,154958.63
2022-10-18T10:44:21.525Z,154988.56
2022-10-18T10:46:54.475Z,154988.56
2022-10-18T10:49:39.798Z,155018.50
2022-10-18T10:52:36.591Z,155035.44
2022-10-18T10:55:30.806Z,155025.03
2022-10-18T10:57:59.395Z,155038.03
2022-10-18T11:00:47.214Z,155060.19
2022-10-18T11:03:28.924Z,155118.78
2022-10-18T11:06:02.097Z,155140.94
2022-10-18T11:08:38.922Z,155165.69
2022-10-18T11:11:23.284Z,155190.41
2022-10-18T11:14:21.157Z,155207.31
2022-10-18T11:17:05.548Z,155219.06
2022-10-18T11:19:46.196Z,155202.13
2022-10-18T11:22:21.949Z,155221.66
2022-10-18T11:24:52.397Z,155262.03
2022-10-18T11:27:29.063Z,155267.22
2022-10-18T11:30:17.435Z,155281.56
2022-10-18T11:32:55.965Z,155307.59
2022-10-18T11:35:39.073Z,155298.53
2022-10-18T11:38:38.138Z,155329.81
2022-10-18T11:41:32.087Z,155340.22
2022-10-18T11:44:04.823Z,155344.16
2022-10-18T11:46:49.675Z,155350.66
2022-10-18T11:49:36.581Z,155367.56
2022-10-18T11:52:15.705Z,155377.97
2022-10-18T11:55:08.351Z,155333.75
2022-10-18T11:57:51.407Z,155359.78
2022-10-18T12:00:33.581Z,155370.19
2022-10-18T12:03:22.174Z,155361.06
2022-10-18T12:05:58.383Z,155384.53
2022-10-18T12:08:35.998Z,155381.91
2022-10-18T12:11:13.697Z,155370.19
2022-10-18T12:13:50.450Z,155396.25
2022-10-18T12:16:45.477Z,155381.91
2022-10-18T12:19:25.185Z,155366.28
2022-10-18T12:22:14.886Z,155409.28
2022-10-18T12:24:46.306Z,155389.75
2022-10-18T12:27:19.469Z,155379.31
2022-10-18T12:29:57.150Z,155387.13
2022-10-18T12:32:34.171Z,155406.66
2022-10-18T12:35:09.485Z,155426.19
2022-10-18T12:38:21.449Z,155434.03
2022-10-18T12:40:57.644Z,155401.44
2022-10-18T12:43:32.699Z,155396.25
2022-10-18T12:46:10.754Z,155375.41
2022-10-18T12:48:46.998Z,155384.53
2022-10-18T12:51:20.050Z,155398.88
2022-10-18T12:54:00.043Z,155402.75
2022-10-18T12:56:43.084Z,155393.66
2022-10-18T12:59:52.372Z,155384.53
2022-10-18T13:02:29.066Z,155355.88
2022-10-18T13:05:00.912Z,155337.59
2022-10-18T13:07:45.637Z,155374.13
2022-10-18T13:10:48.758Z,155340.22
2022-10-18T13:13:55.507Z,155359.78
2022-10-18T13:16:42.248Z,155324.56
2022-10-18T13:19:25.185Z,155315.44
2022-10-18T13:22:11.405Z,155325.84
2022-10-18T13:24:47.494Z,155357.16
2022-10-18T13:27:36.907Z,155321.94
2022-10-18T13:30:33.489Z,155284.19
2022-10-18T13:33:19.341Z,155299.81
2022-10-18T13:35:55.721Z,155295.91
2022-10-18T13:38:47.405Z,155273.78
2022-10-18T13:41:20.171Z,155264.66
2022-10-18T13:44:16.208Z,155282.84
2022-10-18T13:47:21.709Z,155249.03
2022-10-18T13:50:28.089Z,155229.50
2022-10-18T13:53:22.532Z,155212.53
2022-10-18T13:56:02.383Z,155246.41
2022-10-18T13:58:53.751Z,155189.13
2022-10-18T14:01:52.894Z,155183.88
2022-10-18T14:05:16.630Z,155166.97
2022-10-18T14:07:50.542Z,155170.88
2022-10-18T14:10:43.670Z,155134.44
2022-10-18T14:13:24.713Z,155143.50
2022-10-18T14:15:59.144Z,155123.97
2022-10-18T14:18:38.439Z,155079.72
2022-10-18T14:21:19.839Z,155088.78
2022-10-18T14:23:51.774Z,155061.47
2022-10-18T14:26:24.261Z,155018.50
2022-10-18T14:29:07.105Z,155002.88
2022-10-18T14:31:38.587Z,155023.69
2022-10-18T14:34:18.385Z,155004.19
2022-10-18T14:36:51.603Z,154982.06
2022-10-18T14:39:23.991Z,154967.75
2022-10-18T14:41:57.432Z,154914.38
2022-10-18T14:44:29.027Z,154918.28
2022-10-18T14:47:04.705Z,154911.81
2022-10-18T14:49:45.495Z,154905.25
2022-10-18T14:52:18.982Z,154870.13
2022-10-18T14:54:49.394Z,154913.09
2022-10-18T14:57:24.461Z,154854.53
2022-10-18T15:00:02.162Z,154824.56
2022-10-18T15:02:35.483Z,154780.31
2022-10-18T15:05:20.747Z,154730.88
2022-10-18T15:07:51.934Z,154699.69
2022-10-18T15:10:25.006Z,154676.25
2022-10-18T15:13:16.904Z,154641.16
2022-10-18T15:15:49.147Z,154602.19
2022-10-18T15:18:24.795Z,154639.88
2022-10-18T15:21:13.375Z,154590.41
2022-10-18T15:23:43.503Z,154550.09
2022-10-18T15:26:18.478Z,154528.03
2022-10-18T15:28:54.138Z,154505.91
2022-10-18T15:31:28.853Z,154463.03
2022-10-18T15:34:13.069Z,154420.13
2022-10-18T15:36:45.785Z,154372.03
2022-10-18T15:39:21.130Z,154338.25
2022-10-18T15:41:53.485Z,154313.50
2022-10-18T15:44:31.750Z,154270.66
2022-10-18T15:47:21.633Z,154242.06
2022-10-18T15:49:58.466Z,154186.22
2022-10-18T15:52:45.311Z,154157.63
2022-10-18T15:55:48.990Z,154123.88
2022-10-18T15:58:28.299Z,154078.41
2022-10-18T16:01:02.441Z,154049.84
2022-10-18T16:03:37.158Z,154033.00
2022-10-18T16:06:12.246Z,153991.41
2022-10-18T16:08:51.125Z,153952.47
2022-10-18T16:11:24.045Z,153917.41
2022-10-18T16:13:58.000Z,153884.94
2022-10-18T16:16:32.163Z,153864.19
2022-10-18T16:19:03.154Z,153855.09
2022-10-18T16:21:35.639Z,153809.69
2022-10-18T16:24:09.412Z,153783.75
2022-10-18T16:26:40.477Z,153755.19
2022-10-18T16:29:15.241Z,153729.25
2022-10-18T16:31:46.793Z,153715.00
2022-10-18T16:34:17.516Z,153700.72
2022-10-18T16:36:47.976Z,153674.72
2022-10-18T16:39:22.752Z,153664.34
2022-10-18T16:41:56.103Z,153635.81
2022-10-18T16:44:26.169Z,153606.00
2022-10-18T16:46:56.449Z,153581.34
2022-10-18T16:49:28.662Z,153550.25
2022-10-18T16:51:59.726Z,153551.53
2022-10-18T16:54:32.864Z,153525.59
2022-10-18T16:57:03.009Z,153512.63
2022-10-18T16:59:34.817Z,153504.81
2022-10-18T17:02:09.142Z,153494.44
2022-10-18T17:04:39.523Z,153480.19
2022-10-18T17:07:13.313Z,153478.91
2022-10-18T17:09:46.413Z,153476.34
2022-10-18T17:12:16.659Z,153465.97
2022-10-18T17:14:46.721Z,153447.81
2022-10-18T17:17:16.929Z,153440.00
2022-10-18T17:19:47.440Z,153450.38
2022-10-18T17:22:17.480Z,153442.63
2022-10-18T17:24:50.291Z,153427.06
2022-10-18T17:27:21.145Z,153415.38
2022-10-18T17:29:51.346Z,153397.25
2022-10-18T17:32:21.499Z,153381.66
2022-10-18T17:34:51.953Z,153384.28
2022-10-18T17:37:22.189Z,153351.84
2022-10-18T17:39:55.329Z,153341.44
2022-10-18T17:42:25.521Z,153335.00
2022-10-18T17:44:57.729Z,153324.63
2022-10-18T17:47:28.213Z,153314.25
2022-10-18T17:49:58.518Z,153302.63
2022-10-18T17:52:29.096Z,153293.53
2022-10-18T17:55:01.882Z,153268.91
2022-10-18T17:57:32.056Z,153245.59
2022-10-18T18:00:03.311Z,153242.97
2022-10-18T18:02:42.904Z,153240.41
2022-10-18T18:05:13.399Z,153240.41
2022-10-18T18:07:44.313Z,153224.88
2022-10-18T18:10:17.178Z,153219.69
2022-10-18T18:12:48.126Z,153210.59
2022-10-18T18:15:18.825Z,153197.63
2022-10-18T18:18:03.661Z,153188.56
2022-10-18T18:20:33.933Z,153153.59
2022-10-18T18:23:04.187Z,153118.63
2022-10-18T18:25:37.019Z,153100.53
2022-10-18T18:28:07.750Z,153110.88
2022-10-18T18:30:38.446Z,153096.63
2022-10-18T18:33:08.839Z,153085.00
2022-10-18T18:35:39.030Z,153064.22
2022-10-18T18:38:09.270Z,153052.59
2022-10-18T18:40:41.902Z,153046.13
2022-10-18T18:43:23.145Z,153040.97
2022-10-18T18:45:54.860Z,153038.34
2022-10-18T18:48:25.060Z,153047.41
2022-10-18T18:50:55.268Z,153038.34
2022-10-18T18:53:28.639Z,153038.34
2022-10-18T18:56:08.874Z,153038.34
2022-10-18T18:58:40.921Z,153031.88
2022-10-18T19:01:12.281Z,153018.91
2022-10-18T19:03:43.215Z,153012.47
2022-10-18T19:06:15.983Z,152995.66
2022-10-18T19:08:47.799Z,152986.59
2022-10-18T19:11:23.035Z,152981.41
2022-10-18T19:13:53.279Z,152967.16
2022-10-18T19:16:27.894Z,152951.63
2022-10-18T19:19:01.212Z,152937.34
2022-10-18T19:21:33.983Z,152924.38
2022-10-18T19:24:05.062Z,152895.88
2022-10-18T19:26:44.605Z,152895.88
2022-10-18T19:29:18.060Z,152882.97
2022-10-18T19:31:48.671Z,152879.09
2022-10-18T19:34:20.692Z,152872.63
2022-10-18T19:36:52.421Z,152880.38
2022-10-18T19:39:24.176Z,152864.84
2022-10-18T19:42:03.421Z,152863.56
2022-10-18T19:44:36.169Z,152854.50
2022-10-18T19:47:06.952Z,152831.19
2022-10-18T19:49:37.008Z,152837.69
2022-10-18T19:52:07.118Z,152816.94
2022-10-18T19:54:37.428Z,152810.50
2022-10-18T19:57:10.646Z,152805.31
2022-10-18T20:02:41.783Z,152787.19
2022-10-18T20:05:12.979Z,152776.84
2022-10-18T20:07:45.440Z,152779.44
2022-10-18T20:10:15.870Z,152769.09
2022-10-18T20:12:49.067Z,152753.59
2022-10-18T20:15:20.344Z,152757.44
2022-10-18T20:17:50.404Z,152756.16
2022-10-18T20:20:20.493Z,152745.81
2022-10-18T20:22:50.669Z,152747.09
2022-10-18T20:25:20.841Z,152743.19
2022-10-18T20:27:53.875Z,152732.84
2022-10-18T20:30:24.260Z,152725.09
2022-10-18T20:32:54.835Z,152712.16
2022-10-18T20:35:24.904Z,152709.59
2022-10-18T20:37:55.135Z,152701.81
2022-10-18T20:40:25.238Z,152692.75
2022-10-18T20:43:02.955Z,152687.56
2022-10-18T20:45:34.440Z,152665.59
2022-10-18T20:48:04.767Z,152642.31
2022-10-18T20:50:34.924Z,152625.53
2022-10-18T20:53:05.169Z,152624.19
2022-10-18T20:55:36.609Z,152635.84
2022-10-18T20:58:09.821Z,152641.03
2022-10-18T21:00:43.151Z,152629.34
2022-10-18T21:03:13.227Z,152629.34
2022-10-18T21:05:43.305Z,152595.78
2022-10-18T21:08:13.635Z,152620.34
2022-10-18T21:10:43.736Z,152619.03
2022-10-18T21:13:16.333Z,152611.28
2022-10-18T21:15:46.838Z,152604.78
2022-10-18T21:18:17.071Z,152589.28
2022-10-18T21:20:47.263Z,152556.97
2022-10-18T21:23:17.333Z,152564.69
2022-10-18T21:25:48.148Z,152566.03
2022-10-18T21:28:20.825Z,152566.03
2022-10-18T21:30:52.408Z,152569.88
2022-10-18T21:33:22.463Z,152567.31
2022-10-18T21:35:52.528Z,152556.97
2022-10-18T21:38:22.572Z,152554.38
2022-10-18T21:40:52.746Z,152554.38
2022-10-18T21:43:25.574Z,152553.09
2022-10-18T21:46:00.926Z,152549.19
2022-10-18T21:48:31.310Z,152541.47
2022-10-18T21:51:06.069Z,152542.75
2022-10-18T21:53:36.968Z,152538.84
2022-10-18T21:56:09.203Z,152533.69
2022-10-18T21:58:42.450Z,152533.69
2022-10-18T22:01:13.869Z,152534.97
2022-10-18T22:03:44.182Z,152555.69
2022-10-18T22:06:17.419Z,152569.88
2022-10-18T22:08:50.440Z,152553.09
2022-10-18T22:11:21.907Z,152544.03
2022-10-18T22:13:55.795Z,152528.50
2022-10-18T22:16:25.565Z,152527.25
2022-10-18T22:18:59.800Z,152520.75
2022-10-18T22:21:30.333Z,152514.28
2022-10-18T22:24:02.629Z,152513.00
2022-10-18T22:26:35.905Z,152510.41
2022-10-18T22:29:10.897Z,152513.00
2022-10-18T22:31:43.626Z,152506.56
2022-10-18T22:34:16.167Z,152497.50
2022-10-18T22:36:47.006Z,152497.50
2022-10-18T22:39:17.659Z,152498.78
2022-10-18T22:41:49.591Z,152503.94
2022-10-18T22:44:22.644Z,152502.66
2022-10-18T22:46:52.698Z,152493.63
2022-10-18T22:49:22.883Z,152497.50
2022-10-18T22:51:53.056Z,152492.34
2022-10-18T22:54:23.105Z,152488.44
2022-10-18T22:56:54.768Z,152491.00
2022-10-18T22:59:27.926Z,152484.56
2022-10-18T23:01:58.123Z,152478.09
2022-10-18T23:04:28.490Z,152475.50
2022-10-18T23:06:58.832Z,152476.81
2022-10-18T23:09:29.181Z,152476.81
2022-10-18T23:11:59.523Z,152479.38
2022-10-18T23:14:33.810Z,152474.22
2022-10-18T23:17:03.890Z,152470.31
2022-10-18T23:19:33.937Z,152467.78
2022-10-18T23:22:04.235Z,152466.38
2022-10-18T23:24:34.591Z,152471.66
2022-10-18T23:27:06.470Z,152470.31
2022-10-18T23:29:39.411Z,152462.56
2022-10-18T23:32:09.675Z,152466.38
2022-10-18T23:34:39.757Z,152465.13
2022-10-18T23:37:11.631Z,152466.38
2022-10-18T23:39:42.342Z,152484.56
2022-10-18T23:42:12.395Z,152471.66
2022-10-18T23:44:45.402Z,152472.94
2022-10-18T23:47:15.468Z,152500.06
2022-10-18T23:49:45.758Z,152518.19
2022-10-18T23:52:15.953Z,152506.56
2022-10-18T23:54:46.124Z,152527.25
2022-10-18T23:57:16.408Z,152518.19
2022-10-18T23:59:49.290Z,152510.41
